Time;durP1;ratioP1;P1;durP2;ratioP2;P2;SDS_P1;SDS_P2;PMS_P1;PMS_P2;Temp;Humidity;BMP_temperature;BMP_pressure;BME280_temperature;BME280_humidity;BME280_pressure;Samples;Min_cycle;Max_cycle;Signal;HPM_P1;HPM_P2
2023/10/16 00:01:26;;;;;;;;;;;;;;;8.85;79.50;98786.34;5003067;28;20008;-77
2023/10/16 00:03:56;;;;;;;;;;;;;;;8.89;79.68;98785.41;4984504;28;19925;-77
2023/10/16 00:06:22;;;;;;;;;;;;;;;8.95;79.78;98787.88;5007714;28;20028;-76
2023/10/16 00:08:48;;;;;;;;;;;;;;;8.98;79.69;98779.19;4991094;28;19957;-78
2023/10/16 00:11:23;;;;;;;;;;;;;;;8.99;79.80;98773.97;4986684;28;19935;-77
2023/10/16 00:13:57;;;;;;;;;;;;;;;9.04;79.88;98782.50;5014412;28;19928;-78
2023/10/16 00:16:23;;;;;;;;;;;;;;;9.08;79.73;98796.28;5004431;28;19929;-77
2023/10/16 00:18:53;;;;;;;;;;;;;;;9.08;79.65;98803.22;4998328;28;20588;-77
2023/10/16 00:21:19;;;;;;;;;;;;;;;9.06;79.46;98799.81;4998678;28;19929;-78
2023/10/16 00:23:46;;;;;;;;;;;;;;;9.05;79.38;98791.16;5001675;28;20027;-78
2023/10/16 00:26:16;;;;;;;;;;;;;;;9.08;80.05;98787.66;4984301;28;19933;-81
2023/10/16 00:31:37;;;;;;;;;;;;;;;9.09;79.70;98789.38;5018227;28;19922;-82
2023/10/16 00:34:04;;;;;;;;;;;;;;;9.12;80.16;98781.53;4998514;28;19972;-84
2023/10/16 00:36:30;;;;;;;;;;;;;;;9.13;79.90;98785.84;4992512;28;20012;-85
2023/10/16 00:38:58;;;;;;;;;;;;;;;9.15;79.93;98773.69;5007067;28;19921;-83
2023/10/16 00:41:28;;;;;;;;;;;;;;;9.18;79.99;98779.66;5003671;28;19922;-84
2023/10/16 00:43:56;;;;;;;;;;;;;;;9.22;80.15;98774.41;5008345;28;19948;-81
2023/10/16 00:46:44;;;;;;;;;;;;;;;9.26;80.18;98776.06;4997646;28;19925;-84
2023/10/16 00:49:13;;;;;;;;;;;;;;;9.30;79.76;98767.31;5022254;28;19951;-76
2023/10/16 00:51:39;;;;;;;;;;;;;;;9.30;79.87;98775.97;5020189;28;19984;-75
2023/10/16 00:54:28;;;;;;;;;;;;;;;9.31;80.28;98766.44;4992373;28;19992;-76
2023/10/16 00:56:57;;;;;;;;;;;;;;;9.36;79.85;98781.94;5006952;28;19984;-75
2023/10/16 00:59:27;;;;;;;;;;;;;;;9.36;79.91;98780.19;5022471;28;19968;-76
2023/10/16 01:04:57;;;;;;;;;;;;;;;9.42;80.26;98781.78;4985447;28;19937;-76
2023/10/16 01:07:23;;;;;;;;;;;;;;;9.42;80.06;98777.47;5002863;28;19922;-77
2023/10/16 01:09:52;;;;;;;;;;;;;;;9.41;79.93;98775.75;5005666;28;20366;-77
2023/10/16 01:12:20;;;;;;;;;;;;;;;9.42;80.08;98776.59;4997564;28;20453;-78
2023/10/16 01:14:49;;;;;;;;;;;;;;;9.42;79.89;98777.47;4994431;28;19922;-79
2023/10/16 01:17:29;;;;;;;;;;;;;;;9.42;80.18;98771.41;4988406;28;19921;-79
2023/10/16 01:19:56;;;;;;;;;;;;;;;9.41;80.23;98774.88;4991187;28;19988;-77
2023/10/16 01:22:26;;;;;;;;;;;;;;;9.42;80.34;98777.47;4990481;28;19926;-79
2023/10/16 01:24:53;;;;;;;;;;;;;;;9.46;80.11;98773.06;5000331;28;19925;-77
2023/10/16 01:27:29;;;;;;;;;;;;;;;9.44;79.87;98780.00;4986186;28;19926;-77
2023/10/16 01:29:59;;;;;;;;;;;;;;;9.46;80.27;98776.53;5018345;28;20043;-77
2023/10/16 01:32:26;;;;;;;;;;;;;;;9.43;80.04;98776.56;4988235;28;19964;-76
2023/10/16 01:34:52;;;;;;;;;;;;;;;9.41;80.14;98774.88;5004235;28;19925;-76
2023/10/16 01:37:18;;;;;;;;;;;;;;;9.43;80.50;98773.13;5001339;28;20324;-77
2023/10/16 01:39:48;;;;;;;;;;;;;;;9.43;80.09;98780.91;4986389;28;20277;-77
2023/10/16 01:42:18;;;;;;;;;;;;;;;9.39;80.26;98772.31;4999321;28;19933;-78
2023/10/16 01:44:45;;;;;;;;;;;;;;;9.43;80.06;98773.97;5022396;28;19921;-76
2023/10/16 01:47:20;;;;;;;;;;;;;;;9.44;80.54;98772.22;5003206;28;19933;-79
2023/10/16 01:49:50;;;;;;;;;;;;;;;9.47;80.60;98762.66;5009970;28;19925;-78
2023/10/16 01:52:16;;;;;;;;;;;;;;;9.50;80.24;98766.91;5016016;28;19921;-78
2023/10/16 01:54:47;;;;;;;;;;;;;;;9.52;80.53;98761.66;4991667;28;20198;-78
2023/10/16 01:57:17;;;;;;;;;;;;;;;9.56;80.29;98763.31;4978966;28;19921;-78
2023/10/16 01:59:44;;;;;;;;;;;;;;;9.56;80.05;98756.41;4981301;28;19921;-74
2023/10/16 02:02:12;;;;;;;;;;;;;;;9.58;80.56;98758.97;4982509;28;20045;-74
2023/10/16 02:04:42;;;;;;;;;;;;;;;9.58;80.53;98757.22;4979976;28;20291;-74
2023/10/16 02:07:17;;;;;;;;;;;;;;;9.61;80.66;98749.34;4995346;28;19966;-74
2023/10/16 02:09:45;;;;;;;;;;;;;;;9.63;80.23;98757.13;5003384;28;19929;-76
2023/10/16 02:12:14;;;;;;;;;;;;;;;9.65;80.45;98753.59;4994534;28;19922;-76
2023/10/16 02:14:40;;;;;;;;;;;;;;;9.67;80.20;98753.56;4974005;28;19932;-76
2023/10/16 02:17:14;;;;;;;;;;;;;;;9.68;80.81;98754.41;4970932;28;20182;-77
2023/10/16 02:19:43;;;;;;;;;;;;;;;9.67;79.97;98755.31;4988400;28;20056;-77
2023/10/16 02:22:09;;;;;;;;;;;;;;;9.63;79.99;98760.56;4980545;28;19986;-76
2023/10/16 02:24:37;;;;;;;;;;;;;;;9.66;80.32;98759.66;4986720;28;20396;-74
2023/10/16 02:27:09;;;;;;;;;;;;;;;9.71;80.47;98755.19;5016830;28;19921;-74
2023/10/16 02:29:53;;;;;;;;;;;;;;;9.71;80.24;98768.19;4983301;28;19925;-75
2023/10/16 02:32:22;;;;;;;;;;;;;;;9.73;80.52;98770.75;5019393;28;19922;-75
2023/10/16 02:34:50;;;;;;;;;;;;;;;9.67;79.98;98766.56;5000055;28;19928;-76
2023/10/16 02:37:20;;;;;;;;;;;;;;;9.65;80.46;98768.34;4983952;28;19945;-77
2023/10/16 02:39:55;;;;;;;;;;;;;;;9.62;80.06;98771.84;5000453;28;20044;-76
2023/10/16 02:42:26;;;;;;;;;;;;;;;9.65;80.50;98763.13;4988140;28;19921;-80
2023/10/16 02:44:54;;;;;;;;;;;;;;;9.70;80.19;98768.22;5024532;28;20519;-79
2023/10/16 02:47:30;;;;;;;;;;;;;;;9.72;80.68;98758.66;5004430;28;20016;-77
2023/10/16 02:50:08;;;;;;;;;;;;;;;9.72;80.45;98754.31;5003635;28;19929;-77
2023/10/16 02:52:33;;;;;;;;;;;;;;;9.73;80.00;98755.19;4989465;28;19921;-77
2023/10/16 02:55:00;;;;;;;;;;;;;;;9.74;80.54;98752.53;4999800;28;19922;-79
2023/10/16 02:57:27;;;;;;;;;;;;;;;9.73;79.99;98752.56;5003278;28;19922;-76
2023/10/16 02:59:54;;;;;;;;;;;;;;;9.69;80.25;98759.59;5015763;28;19929;-79
2023/10/16 03:02:28;;;;;;;;;;;;;;;9.65;80.16;98763.97;4988418;28;19944;-75
2023/10/16 03:05:10;;;;;;;;;;;;;;;9.62;80.37;98766.63;5015888;28;19922;-78
2023/10/16 03:07:44;;;;;;;;;;;;;;;9.61;80.49;98764.09;5005638;28;19933;-77
2023/10/16 03:10:10;;;;;;;;;;;;;;;9.59;80.53;98771.94;4997934;28;19933;-78
2023/10/16 03:12:36;;;;;;;;;;;;;;;9.59;79.98;98777.13;5005808;28;19944;-78
2023/10/16 03:15:20;;;;;;;;;;;;;;;9.57;80.43;98784.09;4984008;28;19933;-77
2023/10/16 03:17:55;;;;;;;;;;;;;;;9.55;80.19;98780.66;5022008;28;19933;-76
2023/10/16 03:20:28;;;;;;;;;;;;;;;9.54;79.78;98784.16;4993853;28;19921;-77
2023/10/16 03:22:59;;;;;;;;;;;;;;;9.50;79.75;98785.09;4990556;28;20781;-79
2023/10/16 03:28:08;;;;;;;;;;;;;;;9.49;79.94;98778.19;4987260;28;20028;-79
2023/10/16 03:30:34;;;;;;;;;;;;;;;9.49;79.98;98778.19;5000898;28;19925;-81
2023/10/16 03:33:00;;;;;;;;;;;;;;;9.45;80.11;98768.75;5004307;28;19944;-79
2023/10/16 03:35:29;;;;;;;;;;;;;;;9.46;80.35;98757.47;4995186;28;19961;-79
2023/10/16 03:38:08;;;;;;;;;;;;;;;9.46;80.19;98763.53;4993345;28;19944;-82
2023/10/16 03:40:34;;;;;;;;;;;;;;;9.42;79.70;98769.69;5016950;28;19992;-78
2023/10/16 03:43:00;;;;;;;;;;;;;;;9.43;80.51;98767.91;5008380;28;20303;-77
2023/10/16 03:45:27;;;;;;;;;;;;;;;9.40;80.05;98760.19;5004798;28;19964;-79
2023/10/16 03:48:02;;;;;;;;;;;;;;;9.39;79.99;98761.06;4988656;28;19925;-80
2023/10/16 03:50:34;;;;;;;;;;;;;;;9.36;79.74;98777.59;4998887;28;20296;-73
2023/10/16 03:53:01;;;;;;;;;;;;;;;9.33;80.00;98778.50;4970598;28;19929;-73
2023/10/16 03:55:31;;;;;;;;;;;;;;;9.32;79.85;98771.59;4967281;28;19993;-79
2023/10/16 03:57:57;;;;;;;;;;;;;;;9.29;79.57;98773.38;4986286;28;19921;-75
2023/10/16 04:00:26;;;;;;;;;;;;;;;9.23;79.81;98781.31;4986073;28;19930;-77
2023/10/16 04:02:52;;;;;;;;;;;;;;;9.03;79.64;98744.47;5000755;28;20470;-75
2023/10/16 04:05:29;;;;;;;;;;;;;;;9.26;79.98;98776.06;4985364;28;19921;-75
2023/10/16 04:07:56;;;;;;;;;;;;;;;9.24;79.87;98764.88;5002104;28;19936;-75
2023/10/16 04:10:28;;;;;;;;;;;;;;;9.24;79.47;98765.69;5022274;28;21153;-76
2023/10/16 04:13:01;;;;;;;;;;;;;;;9.26;79.43;98761.34;4971937;28;20435;-72
2023/10/16 04:18:17;;;;;;;;;;;;;;;9.26;79.26;98761.34;5001420;28;19925;-76
2023/10/16 04:20:44;;;;;;;;;;;;;;;9.21;79.50;98754.53;5006541;28;19921;-80
2023/10/16 04:31:44;;;;;;;;;;;;;;;9.15;79.31;98745.13;4986341;28;19964;-75
2023/10/16 04:37:24;;;;;;;;;;;;;;;9.19;79.07;98734.66;4995443;28;19977;-74
2023/10/16 04:50:30;;;;;;;;;;;;;;;8.95;78.21;98724.75;4999804;28;19930;-75
2023/10/16 05:14:19;;;;;;;;;;;;;;;9.14;77.67;98739.06;4984279;28;19921;-75
2023/10/16 05:16:49;;;;;;;;;;;;;;;9.15;77.65;98739.94;5000994;28;20414;-79
2023/10/16 06:16:31;;;;;;;;;;;;;;;8.70;76.00;98723.50;4982749;28;19933;-74
2023/10/16 06:18:59;;;;;;;;;;;;;;;8.68;75.98;98732.16;5006539;28;20286;-76
2023/10/16 06:21:25;;;;;;;;;;;;;;;8.65;76.12;98734.81;4991025;28;20356;-76
2023/10/16 06:23:51;;;;;;;;;;;;;;;8.67;76.03;98733.03;4986616;28;19944;-74
2023/10/16 06:26:21;;;;;;;;;;;;;;;8.69;75.78;98736.47;4986707;28;20003;-74
2023/10/16 06:28:47;;;;;;;;;;;;;;;8.65;75.98;98730.50;4986823;28;19937;-75
2023/10/16 06:31:25;;;;;;;;;;;;;;;8.64;76.01;98741.75;4971433;28;19926;-80
2023/10/16 06:33:58;;;;;;;;;;;;;;;8.65;76.04;98737.41;5001482;28;19921;-71
2023/10/16 06:36:24;;;;;;;;;;;;;;;8.64;75.90;98731.38;4984971;28;19934;-75
2023/10/16 06:38:51;;;;;;;;;;;;;;;8.56;75.59;98728.06;4997594;28;19922;-75
2023/10/16 06:41:18;;;;;;;;;;;;;;;8.53;76.06;98730.69;4998942;28;19921;-73
2023/10/16 06:43:47;;;;;;;;;;;;;;;8.53;75.50;98735.88;4985676;28;19948;-73
2023/10/16 06:46:17;;;;;;;;;;;;;;;8.55;75.64;98747.97;5015559;28;20020;-80
2023/10/16 06:48:43;;;;;;;;;;;;;;;8.56;75.68;98744.47;5013773;28;19931;-76
2023/10/16 06:51:14;;;;;;;;;;;;;;;8.55;75.65;98739.31;5015065;28;19976;-75
2023/10/16 06:53:43;;;;;;;;;;;;;;;8.57;75.78;98729.75;5018774;28;20286;-77
2023/10/16 06:56:14;;;;;;;;;;;;;;;8.57;75.76;98730.63;4986063;28;19921;-77
2023/10/16 06:58:40;;;;;;;;;;;;;;;8.53;75.59;98730.69;4997092;28;19944;-76
2023/10/16 07:01:08;;;;;;;;;;;;;;;8.52;75.61;98726.38;5004537;28;20004;-73
2023/10/16 07:03:35;;;;;;;;;;;;;;;8.49;75.19;98726.47;4999853;28;19975;-78
2023/10/16 07:06:05;;;;;;;;;;;;;;;8.36;75.29;98721.44;5002993;28;19988;-78
2023/10/16 07:08:33;;;;;;;;;;;;;;;8.24;75.38;98721.66;5017993;28;19922;-76
2023/10/16 07:11:11;;;;;;;;;;;;;;;8.19;75.72;98723.47;5028263;28;19928;-77
2023/10/16 07:13:42;;;;;;;;;;;;;;;8.18;75.79;98722.59;5031183;28;19922;-76
2023/10/16 07:16:19;;;;;;;;;;;;;;;8.19;75.91;98718.28;4996690;28;20420;-71
2023/10/16 07:18:53;;;;;;;;;;;;;;;8.16;76.01;98721.78;5017333;28;20413;-71
2023/10/16 07:21:24;;;;;;;;;;;;;;;8.13;75.95;98720.09;5005794;28;19948;-77
2023/10/16 07:23:53;;;;;;;;;;;;;;;8.10;75.70;98714.97;5028543;28;19933;-79
2023/10/16 07:26:19;;;;;;;;;;;;;;;8.09;75.80;98715.84;4995488;28;19944;-80
2023/10/16 07:28:58;;;;;;;;;;;;;;;8.11;76.21;98713.25;5012795;28;20380;-78
2023/10/16 07:31:27;;;;;;;;;;;;;;;8.12;75.94;98713.19;5010809;28;19936;-79
2023/10/16 07:33:59;;;;;;;;;;;;;;;8.05;75.83;98706.44;5031035;28;19952;-75
2023/10/16 07:36:25;;;;;;;;;;;;;;;8.00;75.65;98708.22;5023097;28;19921;-78
2023/10/16 07:38:54;;;;;;;;;;;;;;;7.93;75.74;98706.59;5022193;28;19996;-77
2023/10/16 07:41:25;;;;;;;;;;;;;;;7.89;76.03;98710.97;4991827;28;19926;-79
2023/10/16 07:43:56;;;;;;;;;;;;;;;7.87;76.03;98711.88;5022083;28;19933;-77
2023/10/16 07:46:31;;;;;;;;;;;;;;;7.87;76.35;98710.16;5023158;28;19921;-75
2023/10/16 07:49:01;;;;;;;;;;;;;;;7.87;76.17;98702.38;5002330;28;19972;-73
2023/10/16 07:51:27;;;;;;;;;;;;;;;7.89;76.30;98694.56;5002789;28;19925;-72
2023/10/16 07:53:54;;;;;;;;;;;;;;;7.86;75.97;98694.63;5014213;28;19952;-77
2023/10/16 07:59:06;;;;;;;;;;;;;;;7.74;76.13;98690.47;5026675;28;19921;-76
2023/10/16 08:01:36;;;;;;;;;;;;;;;7.72;76.60;98690.50;4995587;28;19929;-77
2023/10/16 08:04:03;;;;;;;;;;;;;;;7.76;76.40;98693.91;5000575;28;19949;-76
2023/10/16 08:06:35;;;;;;;;;;;;;;;7.77;76.06;98686.13;5005520;28;19943;-70
2023/10/16 08:11:52;;;;;;;;;;;;;;;7.83;76.42;98701.56;5006306;28;20240;-77
2023/10/16 08:14:19;;;;;;;;;;;;;;;7.87;76.25;98692.03;5022822;28;19921;-74
2023/10/16 08:16:45;;;;;;;;;;;;;;;7.91;76.30;98690.22;5016787;28;19922;-76
2023/10/16 08:19:23;;;;;;;;;;;;;;;7.95;76.39;98692.72;5011089;28;19929;-76
2023/10/16 08:21:50;;;;;;;;;;;;;;;7.93;75.95;98686.75;5022007;28;19921;-76
2023/10/16 08:24:21;;;;;;;;;;;;;;;7.93;76.35;98686.75;5004567;28;20376;-74
2023/10/16 08:26:48;;;;;;;;;;;;;;;7.94;76.23;98679.81;4996275;28;19936;-72
2023/10/16 08:29:20;;;;;;;;;;;;;;;8.02;76.47;98672.78;5023541;28;19929;-74
2023/10/16 08:31:47;;;;;;;;;;;;;;;8.02;76.40;98679.69;4987612;28;19906;-72
2023/10/16 08:34:20;;;;;;;;;;;;;;;7.98;76.03;98681.47;4976062;28;19932;-74
2023/10/16 08:36:51;;;;;;;;;;;;;;;7.98;76.26;98679.72;4992780;28;19992;-73
2023/10/16 08:39:17;;;;;;;;;;;;;;;7.89;75.91;98673.84;5000422;28;21287;-76
2023/10/16 08:41:45;;;;;;;;;;;;;;;7.85;75.87;98675.66;5016608;28;19941;-77
2023/10/16 08:44:24;;;;;;;;;;;;;;;7.80;76.12;98677.44;4970867;28;19956;-75
2023/10/16 08:47:42;;;;;;;;;;;;;;;7.74;76.42;98674.94;5003419;28;19928;-75
2023/10/16 08:49:39;;;;;;;;;;;;;;;7.67;76.15;98680.22;5017990;28;20056;-77
2023/10/16 08:52:17;;;;;;;;;;;;;;;7.61;76.30;98682.91;4998346;28;19976;-78
2023/10/16 08:57:19;;;;;;;;;;;;;;;7.53;76.59;98679.56;5004877;28;20265;-80
2023/10/16 08:59:50;;;;;;;;;;;;;;;7.56;76.48;98681.25;5003947;28;19985;-77
2023/10/16 09:02:20;;;;;;;;;;;;;;;7.54;76.40;98683.84;5024026;28;20304;-78
2023/10/16 09:04:48;;;;;;;;;;;;;;;7.57;76.64;98672.63;5010380;28;19976;-76
2023/10/16 09:07:17;;;;;;;;;;;;;;;7.55;76.56;98664.84;5020505;28;19921;-74
2023/10/16 09:09:44;;;;;;;;;;;;;;;7.55;76.27;98672.63;4980087;28;19929;-74
2023/10/16 09:12:12;;;;;;;;;;;;;;;7.52;76.45;98668.38;5023290;28;19928;-76
2023/10/16 09:14:40;;;;;;;;;;;;;;;7.52;76.82;98665.78;4986963;28;19928;-73
2023/10/16 09:17:07;;;;;;;;;;;;;;;7.51;76.53;98670.94;4994265;28;19967;-74
2023/10/16 09:19:46;;;;;;;;;;;;;;;7.45;76.83;98658.13;4992968;28;19952;-74
2023/10/16 09:22:13;;;;;;;;;;;;;;;7.52;76.91;98655.41;5022547;28;19927;-73
2023/10/16 09:24:51;;;;;;;;;;;;;;;7.57;76.55;98662.25;4978110;28;19925;-76
2023/10/16 09:27:18;;;;;;;;;;;;;;;7.54;76.93;98658.84;5004512;28;20410;-76
2023/10/16 09:29:53;;;;;;;;;;;;;;;7.57;76.63;98659.69;5019530;28;20040;-77
2023/10/16 09:32:26;;;;;;;;;;;;;;;7.54;76.34;98653.66;5007034;28;19928;-77
2023/10/16 09:34:52;;;;;;;;;;;;;;;7.57;76.74;98657.94;5018096;28;19993;-74
2023/10/16 09:37:28;;;;;;;;;;;;;;;7.70;77.06;98650.84;5004711;28;20329;-75
2023/10/16 09:40:04;;;;;;;;;;;;;;;7.73;76.67;98650.78;4986972;28;19929;-73
2023/10/16 09:42:34;;;;;;;;;;;;;;;7.78;76.79;98656.75;4977016;28;19921;-73
2023/10/16 09:45:09;;;;;;;;;;;;;;;7.77;76.54;98655.06;4974543;28;19925;-77
2023/10/16 09:47:48;;;;;;;;;;;;;;;7.78;76.66;98658.47;5003084;28;19921;-75
2023/10/16 09:50:16;;;;;;;;;;;;;;;7.79;76.66;98660.19;4990307;28;19930;-76
2023/10/16 09:52:45;;;;;;;;;;;;;;;7.80;76.72;98652.41;5014350;28;19920;-76
2023/10/16 09:55:12;;;;;;;;;;;;;;;7.84;76.82;98651.47;4999071;28;19921;-75
2023/10/16 09:57:46;;;;;;;;;;;;;;;7.90;76.50;98647.94;5007964;28;19933;-74
2023/10/16 10:00:28;;;;;;;;;;;;;;;7.90;76.73;98639.28;4982707;28;19921;-74
2023/10/16 10:02:58;;;;;;;;;;;;;;;7.89;76.59;98645.34;5009448;28;19990;-74
2023/10/16 10:05:34;;;;;;;;;;;;;;;7.88;76.81;98641.94;5011715;28;19925;-73
2023/10/16 10:08:03;;;;;;;;;;;;;;;7.92;76.67;98647.91;5004933;28;19925;-75
2023/10/16 10:13:08;;;;;;;;;;;;;;;7.93;76.96;98645.31;5024763;28;20566;-74
2023/10/16 10:15:39;;;;;;;;;;;;;;;7.94;76.44;98641.84;5009431;28;20415;-73
2023/10/16 10:20:58;;;;;;;;;;;;;;;7.94;76.76;98628.00;4996246;28;19921;-73
2023/10/16 10:23:32;;;;;;;;;;;;;;;7.90;76.65;98628.94;4991011;28;19955;-71
2023/10/16 10:26:01;;;;;;;;;;;;;;;7.92;76.80;98629.78;4999931;28;20272;-71
2023/10/16 10:28:40;;;;;;;;;;;;;;;7.90;76.71;98621.16;4981491;28;19949;-76
2023/10/16 10:31:07;;;;;;;;;;;;;;;7.93;76.74;98626.31;5004324;28;19933;-71
2023/10/16 10:33:42;;;;;;;;;;;;;;;7.91;76.77;98617.69;4985030;28;19921;-72
2023/10/16 10:39:24;;;;;;;;;;;;;;;8.05;76.72;98620.06;4982458;28;19921;-70
2023/10/16 10:42:03;;;;;;;;;;;;;;;8.06;76.54;98607.06;5001091;28;19989;-72
2023/10/16 10:44:30;;;;;;;;;;;;;;;8.04;76.51;98608.84;5010902;28;19922;-74
2023/10/16 10:47:00;;;;;;;;;;;;;;;8.08;76.68;98597.53;4990695;28;19925;-75
2023/10/16 10:49:30;;;;;;;;;;;;;;;8.09;76.72;98604.41;4998777;28;19929;-71
2023/10/16 10:51:55;;;;;;;;;;;;;;;8.08;76.16;98596.69;4977218;28;21424;-70
2023/10/16 10:54:22;;;;;;;;;;;;;;;8.10;76.69;98592.34;4978380;28;19964;-77
2023/10/16 10:56:48;;;;;;;;;;;;;;;8.19;76.86;98589.56;5003970;28;19922;-69
2023/10/16 10:59:39;;;;;;;;;;;;;;;8.22;76.59;98586.06;4969575;28;19945;-71
2023/10/16 11:04:44;;;;;;;;;;;;;;;8.37;76.59;98579.75;4984066;28;19926;-71
2023/10/16 11:10:05;;;;;;;;;;;;;;;8.53;76.54;98585.50;4979990;28;20361;-71
2023/10/16 11:12:32;;;;;;;;;;;;;;;8.51;76.53;98566.53;4991219;28;19998;-74
2023/10/16 11:15:02;;;;;;;;;;;;;;;8.60;76.54;98563.75;5002336;28;19922;-74
2023/10/16 11:17:34;;;;;;;;;;;;;;;8.67;76.39;98557.56;5004317;28;19965;-75
2023/10/16 11:20:27;;;;;;;;;;;;;;;8.68;75.90;98561.88;5002868;28;20384;-73
2023/10/16 11:22:58;;;;;;;;;;;;;;;8.80;76.82;98552.09;4978049;28;19922;-74
2023/10/16 11:25:30;;;;;;;;;;;;;;;8.93;76.26;98558.75;5019918;28;20285;-75
2023/10/16 11:28:07;;;;;;;;;;;;;;;8.99;76.46;98548.22;5004640;28;20435;-74
2023/10/16 11:30:38;;;;;;;;;;;;;;;9.02;76.22;98545.56;4982671;28;19956;-73
2023/10/16 11:33:09;;;;;;;;;;;;;;;9.08;76.38;98544.56;5008162;28;19922;-71
2023/10/16 11:35:41;;;;;;;;;;;;;;;9.19;76.45;98542.59;5021134;28;19999;-70
2023/10/16 11:38:13;;;;;;;;;;;;;;;9.27;76.09;98534.59;4986161;28;20005;-70
2023/10/16 11:40:42;;;;;;;;;;;;;;;9.29;76.08;98537.16;4989744;28;19922;-69
2023/10/16 11:43:12;;;;;;;;;;;;;;;9.29;76.38;98538.03;4996960;28;19922;-71
2023/10/16 11:46:05;;;;;;;;;;;;;;;9.24;76.09;98531.25;4983133;28;19925;-69
2023/10/16 11:51:10;;;;;;;;;;;;;;;9.27;76.33;98534.59;5016368;28;19925;-70
2023/10/16 11:53:37;;;;;;;;;;;;;;;9.34;76.20;98525.78;4995106;28;20368;-70
2023/10/16 11:56:08;;;;;;;;;;;;;;;9.34;76.12;98524.94;5004975;28;19921;-68
2023/10/16 11:58:34;;;;;;;;;;;;;;;9.27;76.09;98520.78;4971207;28;19925;-67
2023/10/16 12:01:11;;;;;;;;;;;;;;;9.27;76.24;98523.38;4983239;28;19922;-68
2023/10/16 12:03:46;;;;;;;;;;;;;;;9.30;76.25;98524.16;5024066;28;20335;-69
2023/10/16 12:06:17;;;;;;;;;;;;;;;9.31;76.03;98519.81;4989290;28;19921;-71
2023/10/16 12:08:44;;;;;;;;;;;;;;;9.31;75.67;98520.66;5008673;28;20442;-70
2023/10/16 12:11:14;;;;;;;;;;;;;;;9.28;75.88;98520.75;4994448;28;19921;-71
2023/10/16 12:13:43;;;;;;;;;;;;;;;9.27;75.88;98519.03;5013517;28;19925;-71
2023/10/16 12:16:09;;;;;;;;;;;;;;;9.30;75.88;98511.19;5002054;28;19964;-70
2023/10/16 12:18:38;;;;;;;;;;;;;;;9.34;75.87;98512.81;4983267;28;19969;-71
2023/10/16 12:21:07;;;;;;;;;;;;;;;9.34;76.31;98512.81;4999197;28;19922;-70
2023/10/16 12:23:36;;;;;;;;;;;;;;;9.33;76.09;98498.13;4995483;28;19950;-69
2023/10/16 12:26:07;;;;;;;;;;;;;;;9.33;75.75;98512.84;4997539;28;19922;-69
2023/10/16 12:28:35;;;;;;;;;;;;;;;9.29;75.38;98506.00;4997580;28;19921;-69
2023/10/16 12:31:02;;;;;;;;;;;;;;;9.31;75.98;98502.50;5010486;28;20158;-69
2023/10/16 12:33:30;;;;;;;;;;;;;;;9.36;76.37;98504.13;5004159;28;20303;-69
2023/10/16 12:36:01;;;;;;;;;;;;;;;9.37;75.72;98511.03;4989839;28;19945;-69
2023/10/16 12:38:27;;;;;;;;;;;;;;;9.30;75.78;98511.19;5001476;28;19954;-70
2023/10/16 12:40:54;;;;;;;;;;;;;;;9.31;76.00;98505.09;4996291;28;19926;-70
2023/10/16 12:43:27;;;;;;;;;;;;;;;9.29;75.64;98511.19;4985957;28;19990;-69
2023/10/16 12:45:57;;;;;;;;;;;;;;;9.28;75.97;98512.97;4994660;28;19922;-69
2023/10/16 12:48:28;;;;;;;;;;;;;;;9.24;75.74;98511.31;4988820;28;19926;-69
2023/10/16 12:51:00;;;;;;;;;;;;;;;9.27;75.73;98513.84;4990034;28;19926;-70
2023/10/16 12:53:29;;;;;;;;;;;;;;;9.26;75.75;98509.53;4984666;28;20269;-69
2023/10/16 12:55:58;;;;;;;;;;;;;;;9.27;75.73;98510.41;5005493;28;19929;-69
2023/10/16 12:58:26;;;;;;;;;;;;;;;9.28;76.24;98506.91;5006350;28;19922;-69
2023/10/16 13:00:58;;;;;;;;;;;;;;;9.28;76.08;98515.56;5002731;28;19968;-70
2023/10/16 13:03:24;;;;;;;;;;;;;;;9.31;76.06;98514.59;4987210;28;20024;-71
2023/10/16 13:05:54;;;;;;;;;;;;;;;9.29;76.28;98508.59;4989620;28;19965;-69
2023/10/16 13:08:30;;;;;;;;;;;;;;;9.29;76.14;98506.88;5003145;28;19922;-71
2023/10/16 13:10:55;;;;;;;;;;;;;;;9.33;76.42;98503.31;5000790;28;19926;-70
2023/10/16 13:13:21;;;;;;;;;;;;;;;9.30;76.05;98511.19;4985973;28;19922;-68
2023/10/16 13:15:51;;;;;;;;;;;;;;;9.28;76.12;98497.38;4989057;28;19945;-70
2023/10/16 13:18:27;;;;;;;;;;;;;;;9.29;76.31;98512.06;4979272;28;19940;-70
2023/10/16 13:23:55;;;;;;;;;;;;;;;9.23;75.93;98509.59;4958683;28;19921;-73
2023/10/16 13:26:21;;;;;;;;;;;;;;;9.19;76.30;98503.66;5001070;28;19936;-68
2023/10/16 13:28:48;;;;;;;;;;;;;;;9.16;76.17;98508.91;4996352;28;19922;-67
2023/10/16 13:31:14;;;;;;;;;;;;;;;9.14;76.25;98513.28;4989933;28;19964;-71
2023/10/16 13:33:44;;;;;;;;;;;;;;;9.18;76.08;98508.84;4987424;28;20466;-68
2023/10/16 13:36:11;;;;;;;;;;;;;;;9.17;76.08;98501.97;5001997;28;19953;-71
2023/10/16 13:38:38;;;;;;;;;;;;;;;9.10;75.76;98505.59;4992487;28;20236;-70
2023/10/16 13:41:17;;;;;;;;;;;;;;;9.03;75.82;98516.13;4999303;28;19921;-72
2023/10/16 13:43:45;;;;;;;;;;;;;;;9.03;76.10;98510.09;4987787;28;19993;-71
2023/10/16 13:46:13;;;;;;;;;;;;;;;8.99;76.14;98505.84;5001086;28;19989;-69
2023/10/16 13:48:45;;;;;;;;;;;;;;;8.98;76.47;98507.59;4984909;28;19933;-72
2023/10/16 13:51:18;;;;;;;;;;;;;;;8.99;76.13;98509.28;4998546;28;20402;-71
2023/10/16 13:53:47;;;;;;;;;;;;;;;9.01;76.03;98515.31;4987919;28;19925;-70
2023/10/16 13:56:16;;;;;;;;;;;;;;;8.98;76.19;98510.19;5020343;28;19925;-73
2023/10/16 13:58:49;;;;;;;;;;;;;;;8.95;76.13;98517.19;4999243;28;20365;-72
2023/10/16 14:01:15;;;;;;;;;;;;;;;8.94;76.14;98515.47;4995206;28;20300;-77
2023/10/16 14:03:42;;;;;;;;;;;;;;;8.93;76.13;98519.84;5000310;28;19922;-74
2023/10/16 14:06:12;;;;;;;;;;;;;;;8.91;76.32;98519.00;5003758;28;19922;-73
2023/10/16 14:08:41;;;;;;;;;;;;;;;8.92;76.33;98517.25;4999087;28;19926;-71
2023/10/16 14:11:11;;;;;;;;;;;;;;;8.92;76.38;98514.66;4981335;28;19978;-71
2023/10/16 14:13:39;;;;;;;;;;;;;;;8.91;76.32;98512.94;5002353;28;19926;-71
2023/10/16 14:18:35;;;;;;;;;;;;;;;8.85;75.95;98506.16;5007648;28;19925;-70
2023/10/16 14:21:08;;;;;;;;;;;;;;;8.83;76.20;98503.59;5002460;28;19975;-70
2023/10/16 14:23:34;;;;;;;;;;;;;;;8.82;76.22;98503.63;4990950;28;19948;-72
2023/10/16 14:26:11;;;;;;;;;;;;;;;8.80;76.30;98502.81;5004500;28;20446;-71
2023/10/16 14:28:59;;;;;;;;;;;;;;;8.79;76.30;98506.31;5012922;28;19922;-71
2023/10/16 14:31:29;;;;;;;;;;;;;;;8.77;76.14;98508.94;4980610;28;19926;-73
2023/10/16 14:33:58;;;;;;;;;;;;;;;8.76;76.36;98506.38;4986308;28;19921;-72
2023/10/16 14:36:29;;;;;;;;;;;;;;;8.71;75.97;98503.88;5019219;28;19948;-73
2023/10/16 14:39:03;;;;;;;;;;;;;;;8.67;76.23;98510.88;4994067;28;19929;-70
2023/10/16 14:41:30;;;;;;;;;;;;;;;8.69;76.47;98500.47;5017588;28;19989;-72
2023/10/16 14:43:59;;;;;;;;;;;;;;;8.72;76.62;98503.00;4998160;28;19925;-74
2023/10/16 14:46:25;;;;;;;;;;;;;;;8.67;76.28;98497.91;4999606;28;19901;-72
2023/10/16 14:48:54;;;;;;;;;;;;;;;8.63;76.57;98501.47;4990643;28;19925;-72
2023/10/16 14:51:22;;;;;;;;;;;;;;;8.62;76.56;98499.75;5008985;28;20285;-71
2023/10/16 14:53:50;;;;;;;;;;;;;;;8.61;76.53;98498.03;4996189;28;19929;-73
2023/10/16 14:56:26;;;;;;;;;;;;;;;8.61;76.61;98499.78;5019103;28;19921;-72
2023/10/16 14:58:52;;;;;;;;;;;;;;;8.65;76.95;98494.50;5011218;28;19929;-73
2023/10/16 15:01:19;;;;;;;;;;;;;;;8.69;76.65;98492.69;4984070;28;19925;-69
2023/10/16 15:03:47;;;;;;;;;;;;;;;8.71;76.68;98486.59;4976663;28;19957;-70
2023/10/16 15:06:13;;;;;;;;;;;;;;;8.75;76.99;98495.16;4974407;28;19965;-71
2023/10/16 15:08:47;;;;;;;;;;;;;;;8.78;76.80;98483.84;4998847;28;19925;-78
2023/10/16 15:11:13;;;;;;;;;;;;;;;8.77;76.39;98487.31;5025457;28;19937;-70
2023/10/16 15:13:40;;;;;;;;;;;;;;;8.83;76.84;98482.00;4986290;28;19983;-69
2023/10/16 15:16:10;;;;;;;;;;;;;;;8.86;76.70;98487.13;5005241;28;19921;-69
2023/10/16 15:18:46;;;;;;;;;;;;;;;8.89;77.00;98492.25;5020453;28;19930;-70
2023/10/16 15:21:12;;;;;;;;;;;;;;;8.90;76.89;98496.56;5001130;28;19975;-72
2023/10/16 15:23:38;;;;;;;;;;;;;;;8.91;76.75;98490.47;4988882;28;20230;-69
2023/10/16 15:26:05;;;;;;;;;;;;;;;8.94;76.94;98492.97;5008914;28;19926;-72
2023/10/16 15:28:36;;;;;;;;;;;;;;;8.97;77.32;98485.13;5008555;28;19921;-75
2023/10/16 15:31:02;;;;;;;;;;;;;;;9.02;77.11;98503.19;4985548;28;19929;-72
2023/10/16 15:33:34;;;;;;;;;;;;;;;9.06;77.19;98488.41;5016142;28;20157;-73
2023/10/16 15:36:00;;;;;;;;;;;;;;;9.03;76.76;98495.38;4977521;28;20375;-71